Time;durP1;ratioP1;P1;durP2;ratioP2;P2;SDS_P1;SDS_P2;PMS_P1;PMS_P2;Temp;Humidity;BMP_temperature;BMP_pressure;BME280_temperature;BME280_humidity;BME280_pressure;Samples;Min_cycle;Max_cycle;Signal;HPM_P1;HPM_P2
2021/05/07 00:02:45;;;;;;;6.70;4.63;;;9.70;99.90;;;;;;6283576;28;20473;-69
2021/05/07 00:05:53;;;;;;;6.47;4.80;;;9.70;99.90;;;;;;6286914;28;20469;-70
2021/05/07 00:08:57;;;;;;;6.20;5.60;;;9.70;99.90;;;;;;6284566;28;20473;-71
2021/05/07 00:11:59;;;;;;;7.00;4.90;;;9.70;99.90;;;;;;6286561;28;20481;-70
2021/05/07 00:15:02;;;;;;;6.10;5.50;;;9.70;99.90;;;;;;6290095;28;20492;-70
2021/05/07 00:18:04;;;;;;;5.37;4.87;;;9.70;99.90;;;;;;6290055;28;20465;-70
2021/05/07 00:21:08;;;;;;;5.70;4.30;;;9.70;99.90;;;;;;6289987;28;20476;-70
2021/05/07 00:24:12;;;;;;;6.27;4.80;;;9.70;99.90;;;;;;6283668;28;20531;-70
2021/05/07 00:27:16;;;;;;;4.13;3.80;;;9.70;99.90;;;;;;6284494;28;20484;-71
2021/05/07 00:30:19;;;;;;;5.47;4.53;;;9.60;99.90;;;;;;6289354;28;20489;-70
2021/05/07 00:33:21;;;;;;;4.37;4.03;;;9.60;99.90;;;;;;6287952;28;20477;-71
2021/05/07 00:36:23;;;;;;;4.87;4.40;;;9.60;99.90;;;;;;6285932;28;20477;-70
2021/05/07 00:39:27;;;;;;;7.40;4.63;;;9.70;99.90;;;;;;6285424;28;20832;-70
2021/05/07 00:42:29;;;;;;;5.10;4.60;;;9.70;99.90;;;;;;6286350;28;20481;-70
2021/05/07 00:45:31;;;;;;;4.97;4.03;;;9.70;99.90;;;;;;6286471;28;20465;-71
2021/05/07 00:48:34;;;;;;;5.10;4.67;;;9.70;99.90;;;;;;6276475;28;20470;-70
2021/05/07 00:51:36;;;;;;;6.47;4.20;;;9.80;99.90;;;;;;6273650;28;20485;-70
2021/05/07 00:54:39;;;;;;;4.33;3.93;;;9.80;99.90;;;;;;6273695;28;20498;-70
2021/05/07 00:57:41;;;;;;;4.57;3.67;;;9.80;99.90;;;;;;6273267;28;20497;-70
2021/05/07 01:00:43;;;;;;;4.43;4.03;;;9.80;99.90;;;;;;6273476;28;20466;-70
2021/05/07 01:03:46;;;;;;;6.33;4.93;;;9.90;99.90;;;;;;6273371;28;20486;-70
2021/05/07 01:06:48;;;;;;;6.13;4.67;;;9.90;99.90;;;;;;6273475;28;20481;-70
2021/05/07 01:09:51;;;;;;;4.63;4.10;;;9.90;99.90;;;;;;6273596;28;20470;-71
2021/05/07 01:12:54;;;;;;;8.23;5.57;;;10.00;99.90;;;;;;6272917;28;20482;-70
2021/05/07 01:16:14;;;;;;;4.53;4.10;;;10.10;99.90;;;;;;6273368;28;20486;-70
2021/05/07 01:19:16;;;;;;;4.97;4.50;;;10.10;99.90;;;;;;6273087;28;20474;-70
2021/05/07 01:22:20;;;;;;;6.10;5.13;;;10.10;99.90;;;;;;6273026;28;20788;-70
2021/05/07 01:25:26;;;;;;;5.10;4.60;;;10.10;99.90;;;;;;6272911;28;20553;-70
2021/05/07 01:28:28;;;;;;;10.30;4.90;;;10.10;99.90;;;;;;6273213;28;20485;-70
2021/05/07 01:31:31;;;;;;;5.53;5.00;;;10.00;99.90;;;;;;6272806;28;20485;-69
2021/05/07 01:34:34;;;;;;;5.73;4.60;;;10.00;99.90;;;;;;6272826;28;20492;-70
2021/05/07 01:37:37;;;;;;;5.40;4.37;;;10.10;99.90;;;;;;6272731;28;20478;-69
2021/05/07 01:40:41;;;;;;;4.97;4.13;;;10.20;99.90;;;;;;6273134;28;20469;-69
2021/05/07 01:43:43;;;;;;;6.40;3.80;;;10.10;99.90;;;;;;6272595;28;20943;-68
2021/05/07 01:46:46;;;;;;;4.30;3.90;;;10.20;99.90;;;;;;6273309;28;20442;-69
2021/05/07 01:49:48;;;;;;;4.40;4.00;;;10.20;99.90;;;;;;6274859;28;20550;-69
2021/05/07 01:52:52;;;;;;;5.60;4.13;;;10.20;99.90;;;;;;6277626;28;20786;-68
2021/05/07 01:55:54;;;;;;;4.13;3.70;;;10.30;99.90;;;;;;6277919;28;20482;-69
2021/05/07 01:58:56;;;;;;;5.03;3.80;;;10.30;99.90;;;;;;6278544;28;20458;-69
2021/05/07 02:01:59;;;;;;;4.43;3.90;;;10.30;99.90;;;;;;6278930;28;20454;-70
2021/05/07 02:05:01;;;;;;;4.40;4.00;;;10.20;99.60;;;;;;6278456;28;20530;-70
2021/05/07 02:08:06;;;;;;;5.40;4.33;;;10.30;99.70;;;;;;6278582;28;20468;-70
2021/05/07 02:11:09;;;;;;;4.30;3.90;;;10.30;99.60;;;;;;6278080;28;20478;-70
2021/05/07 02:14:11;;;;;;;7.20;4.20;;;10.30;99.80;;;;;;6278903;28;20472;-70
2021/05/07 02:17:13;;;;;;;5.47;3.83;;;10.30;99.80;;;;;;6277970;28;20478;-71
2021/05/07 02:20:16;;;;;;;4.10;3.70;;;10.40;99.60;;;;;;6278783;28;20465;-72
2021/05/07 02:23:20;;;;;;;6.90;4.03;;;10.30;99.90;;;;;;6278608;28;20548;-71
2021/05/07 02:26:22;;;;;;;4.43;4.03;;;10.40;99.80;;;;;;6278142;28;20497;-70
2021/05/07 02:29:24;;;;;;;5.07;4.30;;;10.40;99.80;;;;;;6278348;28;20473;-70
2021/05/07 02:32:27;;;;;;;9.07;4.70;;;10.40;99.70;;;;;;6277717;28;20469;-71
2021/05/07 02:35:29;;;;;;;3.80;3.40;;;10.40;99.70;;;;;;6278066;28;20983;-70
2021/05/07 02:38:34;;;;;;;4.20;3.80;;;10.30;99.60;;;;;;6277989;28;20465;-71
2021/05/07 02:41:37;;;;;;;4.00;3.27;;;10.40;99.80;;;;;;6278523;28;20493;-70
2021/05/07 02:44:39;;;;;;;4.50;4.10;;;10.40;99.80;;;;;;6277675;28;20473;-58
2021/05/07 02:47:41;;;;;;;4.10;3.80;;;10.40;99.80;;;;;;6277772;28;20469;-59
2021/05/07 02:50:44;;;;;;;6.83;4.80;;;10.40;99.90;;;;;;6277486;28;20478;-58
2021/05/07 02:53:47;;;;;;;4.90;3.97;;;10.40;99.90;;;;;;6277578;28;20481;-58
2021/05/07 02:56:49;;;;;;;6.83;3.87;;;10.40;99.90;;;;;;6277403;28;20481;-58
2021/05/07 02:59:51;;;;;;;7.10;3.80;;;10.40;99.90;;;;;;6277426;28;20478;-59
2021/05/07 03:02:54;;;;;;;4.37;4.00;;;10.30;99.90;;;;;;6276576;28;20478;-58
2021/05/07 03:05:56;;;;;;;4.70;3.80;;;10.40;99.90;;;;;;6277128;28;20470;-58
2021/05/07 03:08:59;;;;;;;5.33;3.93;;;10.40;99.90;;;;;;6277448;28;20474;-58
2021/05/07 03:12:02;;;;;;;6.23;3.97;;;10.50;99.90;;;;;;6276679;28;20508;-58
2021/05/07 03:15:05;;;;;;;5.03;4.20;;;10.70;99.90;;;;;;6276822;28;20473;-58
2021/05/07 03:18:13;;;;;;;5.27;3.37;;;10.60;99.90;;;;;;6276703;28;20989;-58
2021/05/07 03:21:16;;;;;;;4.57;3.90;;;10.70;99.90;;;;;;6276905;28;20477;-58
2021/05/07 03:24:19;;;;;;;5.37;4.00;;;10.70;99.90;;;;;;6276791;28;20488;-58
2021/05/07 03:27:21;;;;;;;4.17;3.50;;;10.60;99.90;;;;;;6276754;28;20957;-58
2021/05/07 03:30:24;;;;;;;4.50;3.90;;;10.70;99.90;;;;;;6276677;28;20470;-58
2021/05/07 03:33:26;;;;;;;6.03;4.47;;;10.70;99.90;;;;;;6276592;28;20474;-59
2021/05/07 03:36:29;;;;;;;4.77;4.30;;;10.80;99.90;;;;;;6276026;28;20635;-58
2021/05/07 03:39:32;;;;;;;5.47;4.30;;;10.80;99.90;;;;;;6276317;28;20470;-58
2021/05/07 03:42:34;;;;;;;4.87;4.40;;;10.80;99.90;;;;;;6276193;28;20477;-59
2021/05/07 03:45:36;;;;;;;4.87;4.40;;;10.80;99.90;;;;;;6276127;28;20468;-59
2021/05/07 03:48:38;;;;;;;10.87;5.90;;;10.80;99.90;;;;;;6276150;28;20547;-58
2021/05/07 03:51:40;;;;;;;5.00;4.60;;;10.80;99.90;;;;;;6276177;28;20466;-58
2021/05/07 03:54:44;;;;;;;5.17;4.67;;;10.80;99.90;;;;;;6276090;28;20480;-58
2021/05/07 03:57:47;;;;;;;5.83;4.33;;;10.80;99.90;;;;;;6275194;28;20474;-58
2021/05/07 04:00:49;;;;;;;7.00;4.63;;;10.80;99.90;;;;;;6265930;28;20556;-60
2021/05/07 04:03:51;;;;;;;8.53;4.57;;;10.80;99.90;;;;;;6274420;28;20473;-58
2021/05/07 04:06:54;;;;;;;8.47;4.50;;;10.80;99.90;;;;;;6274677;28;20497;-59
2021/05/07 04:10:00;;;;;;;9.17;4.73;;;10.80;99.90;;;;;;6274477;28;20474;-58
2021/05/07 04:16:24;;;;;;;5.87;4.37;;;10.70;99.90;;;;;;6274139;28;21129;-58
2021/05/07 04:19:27;;;;;;;5.50;4.33;;;10.60;99.90;;;;;;6274184;28;20465;-58
2021/05/07 04:22:29;;;;;;;6.23;5.33;;;10.70;99.90;;;;;;6274080;28;20477;-60
2021/05/07 04:25:34;;;;;;;6.13;5.40;;;10.60;99.90;;;;;;6273968;28;20513;-60
2021/05/07 04:28:36;;;;;;;5.40;5.00;;;10.60;99.90;;;;;;6273786;28;20485;-60
2021/05/07 04:31:41;;;;;;;6.03;4.97;;;10.70;99.90;;;;;;6274166;28;20549;-58
2021/05/07 04:34:44;;;;;;;7.00;5.50;;;10.80;99.90;;;;;;6274101;28;20531;-61
2021/05/07 04:37:46;;;;;;;5.60;5.10;;;10.70;99.90;;;;;;6273791;28;20492;-70
2021/05/07 04:40:49;;;;;;;6.37;5.13;;;10.60;99.90;;;;;;6273986;28;20907;-61
2021/05/07 04:43:51;;;;;;;6.00;5.40;;;10.60;99.90;;;;;;6273615;28;20887;-58
2021/05/07 04:46:54;;;;;;;7.40;6.30;;;10.60;99.90;;;;;;6273907;28;20441;-63
2021/05/07 04:49:56;;;;;;;7.20;6.50;;;10.60;99.90;;;;;;6273492;28;20437;-71
2021/05/07 04:52:58;;;;;;;9.50;6.40;;;10.50;99.90;;;;;;6273888;28;20474;-72
2021/05/07 04:56:01;;;;;;;7.67;6.70;;;10.50;99.90;;;;;;6273808;28;20462;-72
2021/05/07 04:59:03;;;;;;;8.90;6.53;;;10.50;99.90;;;;;;6273730;28;20477;-59
2021/05/07 05:02:06;;;;;;;7.50;6.53;;;10.50;99.90;;;;;;6264794;28;20466;-62
2021/05/07 05:05:09;;;;;;;7.27;6.57;;;10.60;99.90;;;;;;6273144;28;20478;-63
2021/05/07 05:08:11;;;;;;;9.60;6.70;;;10.60;99.90;;;;;;6273235;28;20906;-63
2021/05/07 05:11:14;;;;;;;8.20;7.07;;;10.60;99.90;;;;;;6273192;28;20489;-62
2021/05/07 05:14:17;;;;;;;8.30;6.97;;;10.60;99.90;;;;;;6273403;28;20477;-59
2021/05/07 05:17:19;;;;;;;9.80;7.27;;;10.70;99.90;;;;;;6272934;28;20482;-60
2021/05/07 05:20:21;;;;;;;7.83;6.27;;;10.70;99.90;;;;;;6273677;28;20509;-59
2021/05/07 05:23:24;;;;;;;7.30;6.57;;;10.80;99.90;;;;;;6272561;28;20964;-71
2021/05/07 05:26:27;;;;;;;9.60;7.33;;;10.80;99.90;;;;;;6273469;28;20466;-71
2021/05/07 05:29:29;;;;;;;7.83;6.60;;;10.70;99.90;;;;;;6273406;28;20466;-72
2021/05/07 05:32:32;;;;;;;10.67;7.63;;;10.70;99.90;;;;;;6273396;28;20478;-71
2021/05/07 05:35:35;;;;;;;10.03;7.40;;;10.80;99.90;;;;;;6273410;28;20468;-72
2021/05/07 05:38:37;;;;;;;9.67;6.50;;;10.80;99.90;;;;;;6273095;28;20981;-72
2021/05/07 05:41:41;;;;;;;9.03;7.43;;;10.90;99.90;;;;;;6273481;28;20470;-72
2021/05/07 05:44:44;;;;;;;9.90;7.30;;;10.90;99.90;;;;;;6273043;28;20482;-71
2021/05/07 05:47:46;;;;;;;6.93;6.30;;;11.00;99.90;;;;;;6273375;28;20485;-71
2021/05/07 05:50:51;;;;;;;6.67;5.97;;;11.10;99.90;;;;;;6272870;28;20488;-71
2021/05/07 05:53:53;;;;;;;10.50;6.53;;;11.20;99.90;;;;;;6273506;28;20470;-71
2021/05/07 05:56:56;;;;;;;7.30;6.63;;;11.30;99.90;;;;;;6272881;28;20466;-71
2021/05/07 06:00:04;;;;;;;8.07;6.83;;;11.30;99.90;;;;;;6272863;28;20474;-72
2021/05/07 06:03:06;;;;;;;8.93;6.73;;;11.30;99.90;;;;;;6272466;28;20531;-72
2021/05/07 06:06:09;;;;;;;8.43;6.97;;;11.40;99.90;;;;;;6268377;28;20941;-72
2021/05/07 06:09:11;;;;;;;7.30;6.57;;;11.50;99.90;;;;;;6272770;28;20788;-72
2021/05/07 06:12:17;;;;;;;8.80;6.43;;;11.50;99.90;;;;;;6272520;28;20977;-71
2021/05/07 06:15:21;;;;;;;9.57;7.73;;;11.60;99.90;;;;;;6272526;28;20480;-71
2021/05/07 06:18:23;;;;;;;7.87;7.13;;;11.50;99.90;;;;;;6272548;28;20476;-71
2021/05/07 06:21:25;;;;;;;8.80;6.97;;;11.40;99.90;;;;;;6272489;28;20474;-71
2021/05/07 06:24:27;;;;;;;8.33;7.47;;;11.20;99.90;;;;;;6272290;28;20470;-71
2021/05/07 06:27:30;;;;;;;9.43;7.57;;;11.30;99.90;;;;;;6273123;28;20489;-71
2021/05/07 06:30:32;;;;;;;9.90;8.67;;;11.40;99.90;;;;;;6272480;28;20470;-71
2021/05/07 06:33:35;;;;;;;9.53;8.33;;;11.30;99.90;;;;;;6272501;28;20607;-71
2021/05/07 06:36:37;;;;;;;12.20;8.60;;;11.20;99.90;;;;;;6273929;28;20980;-72
2021/05/07 06:39:42;;;;;;;8.70;7.80;;;11.30;99.90;;;;;;6276952;28;20481;-71
2021/05/07 06:42:47;;;;;;;9.03;8.07;;;11.40;99.90;;;;;;6276665;28;20484;-71
2021/05/07 06:45:49;;;;;;;10.03;9.10;;;11.40;99.90;;;;;;6276832;28;20474;-63
2021/05/07 06:48:51;;;;;;;8.60;7.40;;;11.50;99.90;;;;;;6276169;28;20809;-62
2021/05/07 06:51:54;;;;;;;8.53;6.83;;;11.50;99.90;;;;;;6276496;28;20470;-62
2021/05/07 06:54:56;;;;;;;9.60;8.70;;;11.50;99.90;;;;;;6276263;28;21000;-63
2021/05/07 06:57:59;;;;;;;10.00;8.20;;;11.60;99.90;;;;;;6276177;28;20530;-62
2021/05/07 07:01:01;;;;;;;11.00;9.10;;;11.60;99.90;;;;;;6276250;28;20493;-63
2021/05/07 07:04:04;;;;;;;12.20;8.43;;;11.60;99.90;;;;;;6275794;28;20819;-62
2021/05/07 07:07:07;;;;;;;14.53;8.60;;;11.70;99.90;;;;;;6275979;28;20466;-62
2021/05/07 07:10:11;;;;;;;15.07;10.73;;;11.80;99.90;;;;;;6276641;28;20480;-62
2021/05/07 07:13:14;;;;;;;11.30;9.67;;;11.70;99.90;;;;;;6287818;28;21139;-62
2021/05/07 07:16:16;;;;;;;11.40;9.63;;;11.60;99.90;;;;;;6287829;28;20474;-62
2021/05/07 07:19:18;;;;;;;10.33;9.30;;;11.50;99.90;;;;;;6287046;28;20995;-62
2021/05/07 07:22:39;;;;;;;13.60;10.80;;;11.30;99.90;;;;;;6288588;28;20485;-62
2021/05/07 07:25:41;;;;;;;11.57;9.40;;;11.30;99.90;;;;;;6286576;28;20451;-62
2021/05/07 07:41:39;;;;;;;11.47;10.10;;;11.20;99.90;;;;;;6329632;27;20584;-59
2021/05/07 07:44:41;;;;;;;12.73;9.50;;;11.10;99.90;;;;;;6294503;28;20469;-59
2021/05/07 07:47:46;;;;;;;10.50;8.87;;;11.10;99.90;;;;;;6302711;28;20454;-59
2021/05/07 07:50:48;;;;;;;11.20;8.10;;;11.10;99.90;;;;;;6295317;28;20481;-59
2021/05/07 07:53:51;;;;;;;8.93;8.10;;;11.30;99.90;;;;;;6294965;28;20826;-59
2021/05/07 07:56:54;;;;;;;8.27;7.57;;;11.50;99.90;;;;;;6295149;28;20476;-59
2021/05/07 07:59:57;;;;;;;8.70;7.90;;;11.60;99.90;;;;;;6294774;28;20565;-58
2021/05/07 08:02:59;;;;;;;8.13;7.37;;;11.60;99.90;;;;;;6294578;28;20473;-59
2021/05/07 08:06:01;;;;;;;15.80;9.37;;;11.80;99.90;;;;;;6302748;28;20479;-58
2021/05/07 08:09:04;;;;;;;8.80;7.40;;;12.00;99.90;;;;;;6294550;28;21004;-58
2021/05/07 08:12:09;;;;;;;8.10;7.40;;;12.20;99.90;;;;;;6307837;28;20969;-58
2021/05/07 08:15:12;;;;;;;7.13;6.50;;;12.30;99.90;;;;;;6344376;28;20542;-63
2021/05/07 08:18:15;;;;;;;8.27;7.20;;;12.30;99.90;;;;;;6367073;27;20462;-69
2021/05/07 08:21:17;;;;;;;7.53;6.83;;;12.10;99.90;;;;;;6342420;27;20814;-66
2021/05/07 08:24:21;;;;;;;7.67;7.07;;;11.90;99.90;;;;;;6343767;27;20474;-67
2021/05/07 08:27:24;;;;;;;7.97;7.30;;;11.90;99.90;;;;;;6350273;27;20466;-66
2021/05/07 08:30:28;;;;;;;8.70;7.80;;;11.90;99.90;;;;;;6369191;27;20475;-66
2021/05/07 08:33:34;;;;;;;9.43;8.37;;;11.90;99.90;;;;;;6352490;27;20492;-58
2021/05/07 08:36:36;;;;;;;8.57;7.77;;;11.90;99.90;;;;;;6362378;27;20473;-58
2021/05/07 08:39:39;;;;;;;7.87;7.07;;;12.00;99.90;;;;;;6358059;27;20467;-63
2021/05/07 08:42:42;;;;;;;10.60;7.97;;;12.10;99.90;;;;;;6352392;27;20467;-62
2021/05/07 08:45:46;;;;;;;9.40;7.83;;;12.10;99.90;;;;;;6336179;27;20567;-62
2021/05/07 08:48:49;;;;;;;9.57;8.07;;;12.10;99.90;;;;;;6327317;28;20596;-68
2021/05/07 08:51:51;;;;;;;8.97;8.20;;;12.10;99.90;;;;;;6324375;27;20476;-64
2021/05/07 08:54:59;;;;;;;12.10;8.10;;;12.10;99.90;;;;;;6326494;28;20420;-67
2021/05/07 08:58:02;;;;;;;9.00;6.67;;;12.10;99.90;;;;;;6333804;28;20552;-65
2021/05/07 09:01:05;;;;;;;8.17;7.27;;;12.20;99.90;;;;;;6332362;28;20468;-67
2021/05/07 09:04:11;;;;;;;7.37;6.70;;;12.30;99.90;;;;;;6324510;28;20923;-65
2021/05/07 09:07:14;;;;;;;7.00;6.40;;;12.30;99.90;;;;;;6348720;27;20474;-64
2021/05/07 09:10:16;;;;;;;10.00;6.17;;;12.20;99.90;;;;;;6349831;27;20463;-65
2021/05/07 09:13:21;;;;;;;7.23;6.00;;;12.00;99.90;;;;;;6349758;27;20513;-64
2021/05/07 09:16:23;;;;;;;7.37;6.53;;;11.80;99.90;;;;;;6349633;27;20799;-68
2021/05/07 09:19:29;;;;;;;9.93;7.50;;;11.70;99.90;;;;;;6337058;27;20483;-66
2021/05/07 09:22:35;;;;;;;8.07;6.90;;;11.50;99.90;;;;;;6324123;27;20464;-67
2021/05/07 09:25:38;;;;;;;8.27;7.03;;;11.60;99.90;;;;;;6324511;27;20479;-64
2021/05/07 09:28:51;;;;;;;8.53;7.73;;;11.50;99.90;;;;;;6324267;27;20485;-67
2021/05/07 09:31:55;;;;;;;8.07;7.20;;;11.50;99.90;;;;;;6323834;27;20618;-68
2021/05/07 09:35:09;;;;;;;10.53;7.30;;;11.60;99.90;;;;;;6323971;28;20460;-66
2021/05/07 09:38:13;;;;;;;10.33;7.10;;;11.50;99.90;;;;;;6325764;27;20794;-66
2021/05/07 09:41:19;;;;;;;8.37;7.37;;;11.40;99.90;;;;;;6323326;27;20472;-67
2021/05/07 09:44:24;;;;;;;8.60;7.80;;;11.40;99.90;;;;;;6323461;27;20818;-66
2021/05/07 09:47:31;;;;;;;11.47;8.33;;;11.40;99.90;;;;;;6328698;27;20688;-67
2021/05/07 09:50:38;;;;;;;9.20;7.40;;;11.50;99.90;;;;;;6347136;27;20971;-68
2021/05/07 09:53:42;;;;;;;9.17;8.27;;;11.60;99.90;;;;;;6346363;27;20608;-68
2021/05/07 09:56:45;;;;;;;9.03;8.13;;;11.60;99.90;;;;;;6346971;27;20471;-69
2021/05/07 09:59:49;;;;;;;9.30;7.20;;;11.60;99.90;;;;;;6346781;27;20476;-67
2021/05/07 10:02:52;;;;;;;8.20;7.00;;;11.50;99.90;;;;;;6346922;27;20497;-70
2021/05/07 10:05:54;;;;;;;7.50;6.70;;;11.40;99.90;;;;;;6348236;27;20478;-66
2021/05/07 10:08:56;;;;;;;7.27;6.57;;;11.40;99.90;;;;;;6348404;27;20479;-67
2021/05/07 10:12:01;;;;;;;8.17;7.43;;;11.30;99.90;;;;;;6347603;27;20471;-65
2021/05/07 10:15:06;;;;;;;7.77;7.00;;;11.20;99.90;;;;;;6348475;27;20555;-67
2021/05/07 10:18:10;;;;;;;8.53;7.43;;;11.10;99.90;;;;;;6348565;27;20468;-66
2021/05/07 10:21:12;;;;;;;7.17;6.30;;;11.00;99.90;;;;;;6348252;27;20597;-65
2021/05/07 10:24:19;;;;;;;8.00;7.30;;;11.00;99.90;;;;;;6348100;27;20567;-64
2021/05/07 10:27:26;;;;;;;7.77;6.40;;;11.10;99.90;;;;;;6348202;27;20602;-64
2021/05/07 10:30:32;;;;;;;7.47;6.77;;;11.30;99.90;;;;;;6347731;27;20483;-65
2021/05/07 10:33:34;;;;;;;7.50;6.00;;;11.40;99.90;;;;;;6347776;27;20478;-68
2021/05/07 10:36:38;;;;;;;6.77;5.43;;;11.50;99.90;;;;;;6347462;27;20471;-64
2021/05/07 10:39:52;;;;;;;6.50;5.90;;;11.50;99.90;;;;;;6328382;27;20799;-67
2021/05/07 10:42:58;;;;;;;5.13;4.63;;;11.60;99.90;;;;;;6324385;27;20762;-67
2021/05/07 10:46:01;;;;;;;7.40;4.50;;;11.60;99.90;;;;;;6325026;28;20463;-68
2021/05/07 10:49:04;;;;;;;8.17;4.60;;;11.70;99.90;;;;;;6324223;28;20570;-65
2021/05/07 10:52:07;;;;;;;4.53;4.10;;;11.70;99.90;;;;;;6325137;28;20444;-67
2021/05/07 10:55:11;;;;;;;5.20;4.67;;;11.90;99.90;;;;;;6332895;27;20453;-65
2021/05/07 10:58:13;;;;;;;4.87;4.47;;;12.00;99.90;;;;;;6349770;27;20477;-67
2021/05/07 11:01:23;;;;;;;4.87;4.40;;;12.00;99.90;;;;;;6332356;28;20476;-66
2021/05/07 11:04:25;;;;;;;4.90;4.40;;;12.10;99.90;;;;;;6324306;28;20976;-65
2021/05/07 11:07:29;;;;;;;4.20;3.70;;;12.10;99.90;;;;;;6324294;28;20475;-65
2021/05/07 11:10:31;;;;;;;3.97;3.60;;;12.00;99.90;;;;;;6323970;28;20497;-67
2021/05/07 11:13:36;;;;;;;3.40;3.10;;;12.00;99.90;;;;;;6324177;28;20464;-64
2021/05/07 11:16:41;;;;;;;4.53;4.23;;;12.00;99.90;;;;;;6324308;28;20820;-63
2021/05/07 11:19:46;;;;;;;5.23;3.87;;;12.00;99.90;;;;;;6324066;28;20824;-63
2021/05/07 11:22:56;;;;;;;5.43;4.70;;;11.90;99.90;;;;;;6324476;28;20472;-61
2021/05/07 11:26:05;;;;;;;5.03;4.63;;;12.00;99.90;;;;;;6324437;28;20469;-56
2021/05/07 11:29:07;;;;;;;6.70;5.47;;;12.00;99.90;;;;;;6323745;28;20964;-63
2021/05/07 11:32:13;;;;;;;4.40;3.57;;;12.00;99.90;;;;;;6323946;28;20509;-64
2021/05/07 11:35:15;;;;;;;4.90;4.50;;;12.00;99.90;;;;;;6323609;28;20468;-63
2021/05/07 11:38:28;;;;;;;8.73;4.70;;;11.90;99.90;;;;;;6323542;28;20779;-59
2021/05/07 11:41:30;;;;;;;4.67;3.67;;;11.80;99.90;;;;;;6323419;28;20965;-64
2021/05/07 11:44:35;;;;;;;3.23;2.93;;;11.80;99.90;;;;;;6323486;28;20816;-59
2021/05/07 11:47:40;;;;;;;3.87;2.83;;;11.80;99.90;;;;;;6323944;28;20460;-57
2021/05/07 11:50:47;;;;;;;3.53;3.07;;;11.90;99.90;;;;;;6323858;28;20472;-61
2021/05/07 11:53:55;;;;;;;3.90;2.60;;;11.80;99.90;;;;;;6323417;28;20804;-58
2021/05/07 11:56:57;;;;;;;2.20;2.00;;;11.80;99.90;;;;;;6323657;28;20483;-65
2021/05/07 11:59:59;;;;;;;2.70;2.50;;;11.80;99.90;;;;;;6323227;28;20469;-65
2021/05/07 12:03:04;;;;;;;3.03;2.83;;;11.80;99.90;;;;;;6330061;28;20463;-65
2021/05/07 12:06:18;;;;;;;2.93;2.70;;;11.80;99.90;;;;;;6348973;27;20467;-62
2021/05/07 12:09:21;;;;;;;2.60;2.40;;;11.70;99.90;;;;;;6328547;27;20480;-66
2021/05/07 12:12:27;;;;;;;2.80;2.57;;;11.80;99.90;;;;;;6323320;28;21013;-67
2021/05/07 12:15:44;;;;;;;3.40;2.80;;;12.00;99.90;;;;;;6318402;28;20499;-69
2021/05/07 12:18:52;;;;;;;2.73;2.53;;;12.10;99.90;;;;;;6325644;28;20464;-67
2021/05/07 12:21:55;;;;;;;2.63;2.13;;;11.90;99.90;;;;;;6336129;27;20459;-66
2021/05/07 12:25:07;;;;;;;2.93;2.10;;;11.80;99.90;;;;;;6342514;27;20535;-66
2021/05/07 12:28:16;;;;;;;1.63;1.53;;;11.90;99.90;;;;;;6351440;27;20440;-66
2021/05/07 12:31:18;;;;;;;2.43;2.23;;;11.80;99.90;;;;;;6350160;27;20459;-62
2021/05/07 12:34:21;;;;;;;2.97;2.40;;;11.80;99.90;;;;;;6351383;27;20482;-63
2021/05/07 12:37:24;;;;;;;3.20;2.57;;;11.90;99.90;;;;;;6350470;27;20471;-62
2021/05/07 12:40:26;;;;;;;3.07;2.27;;;12.10;99.90;;;;;;6336907;27;20471;-66
2021/05/07 12:43:31;;;;;;;1.80;1.70;;;12.20;99.90;;;;;;6350297;27;20475;-63
2021/05/07 12:46:34;;;;;;;3.77;2.60;;;12.20;99.90;;;;;;6350187;27;20492;-68
2021/05/07 12:49:37;;;;;;;2.10;1.90;;;12.20;99.90;;;;;;6350360;27;20483;-66
2021/05/07 12:52:39;;;;;;;2.93;1.67;;;12.10;99.90;;;;;;6324789;28;20460;-67
2021/05/07 12:55:41;;;;;;;1.93;1.70;;;12.00;99.90;;;;;;6325164;28;20459;-66
2021/05/07 12:58:44;;;;;;;1.83;1.67;;;12.10;99.90;;;;;;6342126;27;20619;-68
2021/05/07 13:01:47;;;;;;;2.27;2.07;;;12.30;99.90;;;;;;6350441;27;20475;-68
2021/05/07 13:04:52;;;;;;;2.60;2.30;;;12.50;99.90;;;;;;6349675;27;21027;-68
2021/05/07 13:07:54;;;;;;;3.27;1.90;;;12.90;99.90;;;;;;6349875;27;20993;-68
2021/05/07 13:10:56;;;;;;;2.00;1.73;;;13.10;99.90;;;;;;6350044;27;20463;-68
2021/05/07 13:13:59;;;;;;;2.00;1.67;;;13.40;99.90;;;;;;6334108;28;20483;-63
2021/05/07 13:17:04;;;;;;;2.60;2.00;;;13.60;99.90;;;;;;6324178;28;20469;-67
2021/05/07 13:20:09;;;;;;;3.73;1.77;;;13.90;99.90;;;;;;6324411;28;21028;-67
2021/05/07 13:23:11;;;;;;;2.10;1.90;;;14.10;99.90;;;;;;6324262;28;20471;-69
2021/05/07 13:26:13;;;;;;;2.07;1.73;;;14.40;99.90;;;;;;6324445;28;20470;-69
2021/05/07 13:29:16;;;;;;;1.50;1.40;;;14.10;99.90;;;;;;6324422;28;20474;-68
2021/05/07 13:32:19;;;;;;;1.53;1.27;;;14.40;99.90;;;;;;6326992;28;20471;-69
2021/05/07 13:35:24;;;;;;;1.93;1.63;;;14.90;99.90;;;;;;6342408;27;20500;-71
2021/05/07 13:38:27;;;;;;;1.53;1.33;;;15.10;99.90;;;;;;6331476;28;20986;-67
2021/05/07 13:41:29;;;;;;;1.87;1.30;;;15.10;99.90;;;;;;6339382;27;20971;-67
2021/05/07 13:44:31;;;;;;;1.70;1.43;;;15.10;99.90;;;;;;6349225;27;20482;-67
2021/05/07 13:47:34;;;;;;;1.10;1.00;;;15.10;99.90;;;;;;6349283;27;20474;-68
2021/05/07 13:50:37;;;;;;;1.10;1.00;;;15.40;99.70;;;;;;6349329;27;20489;-66
2021/05/07 13:53:39;;;;;;;2.10;2.00;;;15.40;99.60;;;;;;6348401;27;20551;-62
2021/05/07 13:56:42;;;;;;;4.10;2.83;;;15.20;99.90;;;;;;6345279;27;20968;-65
2021/05/07 13:59:44;;;;;;;3.03;2.07;;;14.90;99.90;;;;;;6348833;27;20464;-64
2021/05/07 14:02:46;;;;;;;2.33;2.13;;;14.50;99.90;;;;;;6348550;27;20475;-65
2021/05/07 14:05:49;;;;;;;3.10;2.07;;;14.20;99.90;;;;;;6348722;27;20467;-65
2021/05/07 14:08:51;;;;;;;2.50;2.20;;;14.10;99.90;;;;;;6332039;27;20991;-61
2021/05/07 14:11:54;;;;;;;1.80;1.70;;;14.10;99.90;;;;;;6323488;28;20490;-61
2021/05/07 14:14:57;;;;;;;2.70;2.50;;;14.30;99.90;;;;;;6323413;28;20553;-60
2021/05/07 14:18:00;;;;;;;2.30;2.20;;;14.30;99.90;;;;;;6323233;28;21060;-60
2021/05/07 14:21:03;;;;;;;2.03;1.93;;;14.40;99.90;;;;;;6325749;28;20475;-64
2021/05/07 14:24:10;;;;;;;2.40;1.93;;;14.70;99.90;;;;;;6338825;28;20490;-64
2021/05/07 14:27:13;;;;;;;1.57;1.47;;;14.90;99.90;;;;;;6336139;28;20480;-60
2021/05/07 14:30:16;;;;;;;1.60;1.50;;;14.90;99.90;;;;;;6329577;28;20471;-60
2021/05/07 14:33:19;;;;;;;1.97;1.87;;;14.70;99.90;;;;;;6348154;27;20467;-59
2021/05/07 14:36:22;;;;;;;2.13;1.73;;;14.60;99.90;;;;;;6329272;27;20548;-60
2021/05/07 14:39:24;;;;;;;1.67;1.50;;;14.80;99.90;;;;;;6331523;28;20487;-60
2021/05/07 14:42:27;;;;;;;1.70;1.60;;;15.00;99.90;;;;;;6324834;28;20478;-59
2021/05/07 14:45:29;;;;;;;2.50;2.20;;;15.30;99.90;;;;;;6350149;27;20467;-58
2021/05/07 14:48:31;;;;;;;1.73;1.63;;;15.40;99.90;;;;;;6349658;27;20473;-58
2021/05/07 14:51:34;;;;;;;2.90;2.20;;;15.40;99.90;;;;;;6349135;27;20482;-56
2021/05/07 14:54:37;;;;;;;2.20;2.00;;;15.20;99.90;;;;;;6349934;27;20478;-56
2021/05/07 14:57:48;;;;;;;5.90;2.77;;;15.00;99.90;;;;;;6348962;27;20702;-57
2021/05/07 15:00:50;;;;;;;2.63;2.10;;;14.80;99.90;;;;;;6344689;27;20471;-57
2021/05/07 15:03:52;;;;;;;2.57;2.37;;;14.80;99.90;;;;;;6337719;27;20472;-59
2021/05/07 15:06:55;;;;;;;3.27;2.00;;;14.90;99.90;;;;;;6324095;28;20447;-60
2021/05/07 15:09:57;;;;;;;1.60;1.50;;;15.00;99.90;;;;;;6323571;28;20812;-59
2021/05/07 15:13:00;;;;;;;1.90;1.80;;;15.10;99.90;;;;;;6323839;28;20440;-59
2021/05/07 15:16:02;;;;;;;2.73;1.90;;;15.10;99.90;;;;;;6318906;28;20456;-58
2021/05/07 15:19:04;;;;;;;2.40;1.93;;;14.80;99.90;;;;;;6321357;28;20909;-59
2021/05/07 15:22:09;;;;;;;2.17;1.90;;;14.70;99.90;;;;;;6321660;28;20439;-58
2021/05/07 15:25:12;;;;;;;3.07;2.87;;;14.80;99.90;;;;;;6322110;28;20424;-58
2021/05/07 15:28:15;;;;;;;2.40;1.97;;;14.90;99.90;;;;;;6321176;28;21050;-58
2021/05/07 15:31:17;;;;;;;3.37;2.47;;;15.00;99.90;;;;;;6326041;27;20459;-57
2021/05/07 15:34:20;;;;;;;2.67;2.07;;;15.00;99.90;;;;;;6340937;28;20472;-57
2021/05/07 15:37:23;;;;;;;4.10;2.23;;;15.00;99.90;;;;;;6321886;28;20456;-57
2021/05/07 15:40:25;;;;;;;2.20;1.57;;;14.90;99.90;;;;;;6322507;28;20462;-57
2021/05/07 15:43:27;;;;;;;2.10;1.90;;;14.90;99.90;;;;;;6320986;28;20556;-57
2021/05/07 15:46:30;;;;;;;2.57;1.80;;;14.90;99.90;;;;;;6340111;27;20459;-59
2021/05/07 15:49:35;;;;;;;1.40;1.30;;;15.20;99.90;;;;;;6347393;27;20552;-58
2021/05/07 15:52:39;;;;;;;2.20;1.57;;;15.40;99.90;;;;;;6353566;27;20463;-57
2021/05/07 15:55:41;;;;;;;2.10;1.53;;;15.50;99.90;;;;;;6353794;27;20463;-56
2021/05/07 15:58:43;;;;;;;3.10;1.23;;;15.50;99.10;;;;;;6354063;27;20481;-55
2021/05/07 16:01:46;;;;;;;1.53;1.13;;;15.60;99.20;;;;;;6352884;27;20963;-55
2021/05/07 16:04:49;;;;;;;1.33;1.23;;;15.50;98.80;;;;;;6354366;27;20475;-55
2021/05/07 16:07:54;;;;;;;1.43;1.30;;;15.60;99.00;;;;;;6353315;27;20561;-57
2021/05/07 16:10:58;;;;;;;3.10;1.70;;;15.70;98.80;;;;;;6353604;27;20468;-56